sensor_id;sensor_type;location;lat;lon;timestamp;pressure;altitude;pressure_sealevel;temperature;humidity
59053;BME280;44843;44.728;10.396;2023-04-27T00:01:10;100392.09;;;13.79;nan
59053;BME280;44843;44.728;10.396;2023-04-27T00:03:36;100395.44;;;13.81;nan
59053;BME280;44843;44.728;10.396;2023-04-27T00:06:02;100387.03;;;13.89;nan
59053;BME280;44843;44.728;10.396;2023-04-27T00:08:27;100394.38;;;13.84;nan
59053;BME280;44843;44.728;10.396;2023-04-27T00:10:53;100382.19;;;13.71;nan
59053;BME280;44843;44.728;10.396;2023-04-27T00:13:18;100381.66;;;13.66;nan
59053;BME280;44843;44.728;10.396;2023-04-27T00:15:44;100382.22;;;13.58;nan
59053;BME280;44843;44.728;10.396;2023-04-27T00:18:09;100384.00;;;13.58;nan
59053;BME280;44843;44.728;10.396;2023-04-27T00:20:35;100382.41;;;13.55;nan
59053;BME280;44843;44.728;10.396;2023-04-27T00:23:00;100382.34;;;13.44;nan
59053;BME280;44843;44.728;10.396;2023-04-27T00:25:26;100379.94;;;13.41;nan
59053;BME280;44843;44.728;10.396;2023-04-27T00:27:51;100384.53;;;13.37;nan
59053;BME280;44843;44.728;10.396;2023-04-27T00:30:16;100382.72;;;13.51;nan
59053;BME280;44843;44.728;10.396;2023-04-27T00:32:42;100379.50;;;13.47;nan
59053;BME280;44843;44.728;10.396;2023-04-27T00:35:07;100374.81;;;13.39;nan
59053;BME280;44843;44.728;10.396;2023-04-27T00:37:33;100377.41;;;13.39;nan
59053;BME280;44843;44.728;10.396;2023-04-27T00:39:58;100385.47;;;13.24;nan
59053;BME280;44843;44.728;10.396;2023-04-27T00:42:24;100393.84;;;13.16;nan
59053;BME280;44843;44.728;10.396;2023-04-27T00:44:49;100390.91;;;13.20;nan
59053;BME280;44843;44.728;10.396;2023-04-27T00:47:15;100391.88;;;13.19;nan
59053;BME280;44843;44.728;10.396;2023-04-27T00:49:41;100395.53;;;13.17;nan
59053;BME280;44843;44.728;10.396;2023-04-27T00:52:06;100396.47;;;13.16;nan
59053;BME280;44843;44.728;10.396;2023-04-27T00:54:32;100403.31;;;13.18;nan
59053;BME280;44843;44.728;10.396;2023-04-27T00:56:57;100406.63;;;13.20;nan
59053;BME280;44843;44.728;10.396;2023-04-27T00:59:23;100400.91;;;13.28;nan
59053;BME280;44843;44.728;10.396;2023-04-27T01:01:49;100395.84;;;13.25;nan
59053;BME280;44843;44.728;10.396;2023-04-27T01:04:15;100403.19;;;13.20;nan
59053;BME280;44843;44.728;10.396;2023-04-27T01:06:42;100411.47;;;13.01;nan
59053;BME280;44843;44.728;10.396;2023-04-27T01:09:08;100410.50;;;12.89;nan
59053;BME280;44843;44.728;10.396;2023-04-27T01:11:34;100414.78;;;12.65;nan
59053;BME280;44843;44.728;10.396;2023-04-27T01:14:04;100404.44;;;12.76;nan
59053;BME280;44843;44.728;10.396;2023-04-27T01:16:33;100398.75;;;12.69;nan
59053;BME280;44843;44.728;10.396;2023-04-27T01:18:59;100414.25;;;12.60;nan
59053;BME280;44843;44.728;10.396;2023-04-27T01:21:25;100415.31;;;12.03;nan
59053;BME280;44843;44.728;10.396;2023-04-27T01:23:51;100408.25;;;12.18;nan
59053;BME280;44843;44.728;10.396;2023-04-27T01:26:17;100417.56;;;12.22;nan
59053;BME280;44843;44.728;10.396;2023-04-27T01:28:42;100414.34;;;12.31;nan
59053;BME280;44843;44.728;10.396;2023-04-27T01:31:11;100425.78;;;12.03;nan
59053;BME280;44843;44.728;10.396;2023-04-27T01:33:37;100427.44;;;12.31;nan
59053;BME280;44843;44.728;10.396;2023-04-27T01:36:03;100422.84;;;12.34;nan
59053;BME280;44843;44.728;10.396;2023-04-27T01:38:29;100428.38;;;12.30;nan
59053;BME280;44843;44.728;10.396;2023-04-27T01:40:55;100428.72;;;12.38;nan
59053;BME280;44843;44.728;10.396;2023-04-27T01:43:28;100436.91;;;12.46;nan
59053;BME280;44843;44.728;10.396;2023-04-27T01:45:54;100436.50;;;12.52;nan
59053;BME280;44843;44.728;10.396;2023-04-27T01:48:19;100428.50;;;12.81;nan
59053;BME280;44843;44.728;10.396;2023-04-27T01:50:45;100425.78;;;12.83;nan
59053;BME280;44843;44.728;10.396;2023-04-27T01:53:10;100424.84;;;12.96;nan
59053;BME280;44843;44.728;10.396;2023-04-27T01:55:36;100430.19;;;12.95;nan
59053;BME280;44843;44.728;10.396;2023-04-27T01:58:01;100429.66;;;12.90;nan
59053;BME280;44843;44.728;10.396;2023-04-27T02:00:27;100436.47;;;12.80;nan
59053;BME280;44843;44.728;10.396;2023-04-27T02:02:52;100436.53;;;12.65;nan
59053;BME280;44843;44.728;10.396;2023-04-27T02:05:18;100431.53;;;12.75;nan
59053;BME280;44843;44.728;10.396;2023-04-27T02:07:44;100433.16;;;12.63;nan
59053;BME280;44843;44.728;10.396;2023-04-27T02:10:09;100435.66;;;12.52;nan
59053;BME280;44843;44.728;10.396;2023-04-27T02:12:35;100439.53;;;12.46;nan
59053;BME280;44843;44.728;10.396;2023-04-27T02:15:00;100447.91;;;12.51;nan
59053;BME280;44843;44.728;10.396;2023-04-27T02:17:27;100438.78;;;12.44;nan
59053;BME280;44843;44.728;10.396;2023-04-27T02:19:53;100441.94;;;12.49;nan
59053;BME280;44843;44.728;10.396;2023-04-27T02:22:19;100447.38;;;12.46;nan
59053;BME280;44843;44.728;10.396;2023-04-27T02:24:45;100439.28;;;12.36;nan
59053;BME280;44843;44.728;10.396;2023-04-27T02:27:10;100446.28;;;12.36;nan
59053;BME280;44843;44.728;10.396;2023-04-27T02:29:36;100449.44;;;12.41;nan
59053;BME280;44843;44.728;10.396;2023-04-27T02:32:04;100453.19;;;12.37;nan
59053;BME280;44843;44.728;10.396;2023-04-27T02:34:30;100466.78;;;12.29;nan
59053;BME280;44843;44.728;10.396;2023-04-27T02:36:55;100461.31;;;12.32;nan
59053;BME280;44843;44.728;10.396;2023-04-27T02:39:21;100471.16;;;12.29;nan
59053;BME280;44843;44.728;10.396;2023-04-27T02:41:46;100470.91;;;12.19;nan
59053;BME280;44843;44.728;10.396;2023-04-27T02:44:12;100474.69;;;12.28;nan
59053;BME280;44843;44.728;10.396;2023-04-27T02:46:37;100476.34;;;12.16;nan
59053;BME280;44843;44.728;10.396;2023-04-27T02:49:02;100475.97;;;11.93;nan
59053;BME280;44843;44.728;10.396;2023-04-27T02:51:28;100472.16;;;11.99;nan
59053;BME280;44843;44.728;10.396;2023-04-27T02:53:53;100478.72;;;11.92;nan
59053;BME280;44843;44.728;10.396;2023-04-27T02:56:18;100480.47;;;11.77;nan
59053;BME280;44843;44.728;10.396;2023-04-27T02:58:44;100486.34;;;11.52;nan
59053;BME280;44843;44.728;10.396;2023-04-27T03:01:09;100476.84;;;11.51;nan
59053;BME280;44843;44.728;10.396;2023-04-27T03:03:34;100484.94;;;11.61;nan
59053;BME280;44843;44.728;10.396;2023-04-27T03:06:00;100493.72;;;11.60;nan
59053;BME280;44843;44.728;10.396;2023-04-27T03:08:25;100491.78;;;11.63;nan
59053;BME280;44843;44.728;10.396;2023-04-27T03:10:51;100499.22;;;11.84;nan
59053;BME280;44843;44.728;10.396;2023-04-27T03:13:16;100504.06;;;11.75;nan
59053;BME280;44843;44.728;10.396;2023-04-27T03:15:41;100511.63;;;11.80;nan
59053;BME280;44843;44.728;10.396;2023-04-27T03:18:07;100504.63;;;11.66;nan
59053;BME280;44843;44.728;10.396;2023-04-27T03:20:32;100510.22;;;11.74;nan
59053;BME280;44843;44.728;10.396;2023-04-27T03:22:57;100523.75;;;11.67;nan
59053;BME280;44843;44.728;10.396;2023-04-27T03:25:23;100520.50;;;11.63;nan
59053;BME280;44843;44.728;10.396;2023-04-27T03:27:48;100520.97;;;11.70;nan
59053;BME280;44843;44.728;10.396;2023-04-27T03:30:13;100514.69;;;11.58;nan
59053;BME280;44843;44.728;10.396;2023-04-27T03:32:39;100515.25;;;11.49;nan
59053;BME280;44843;44.728;10.396;2023-04-27T03:35:05;100514.41;;;11.48;nan
59053;BME280;44843;44.728;10.396;2023-04-27T03:37:30;100512.09;;;11.58;nan
59053;BME280;44843;44.728;10.396;2023-04-27T03:39:56;100524.22;;;11.59;nan
59053;BME280;44843;44.728;10.396;2023-04-27T03:42:22;100521.34;;;11.64;nan
59053;BME280;44843;44.728;10.396;2023-04-27T03:44:47;100520.31;;;11.66;nan
59053;BME280;44843;44.728;10.396;2023-04-27T03:47:12;100529.63;;;11.70;nan
59053;BME280;44843;44.728;10.396;2023-04-27T03:49:38;100525.81;;;11.62;nan
59053;BME280;44843;44.728;10.396;2023-04-27T03:52:03;100519.91;;;11.58;nan
59053;BME280;44843;44.728;10.396;2023-04-27T03:54:32;100520.88;;;11.57;nan
59053;BME280;44843;44.728;10.396;2023-04-27T03:56:57;100526.34;;;11.67;nan
59053;BME280;44843;44.728;10.396;2023-04-27T03:59:22;100522.53;;;11.44;nan
59053;BME280;44843;44.728;10.396;2023-04-27T04:01:48;100523.34;;;11.30;nan
59053;BME280;44843;44.728;10.396;2023-04-27T04:04:13;100512.44;;;11.38;nan
59053;BME280;44843;44.728;10.396;2023-04-27T04:06:39;100521.06;;;11.09;nan
59053;BME280;44843;44.728;10.396;2023-04-27T04:09:04;100517.78;;;11.06;nan
59053;BME280;44843;44.728;10.396;2023-04-27T04:11:30;100530.59;;;11.25;nan
59053;BME280;44843;44.728;10.396;2023-04-27T04:13:55;100530.47;;;10.82;nan
59053;BME280;44843;44.728;10.396;2023-04-27T04:16:20;100532.19;;;10.97;nan
59053;BME280;44843;44.728;10.396;2023-04-27T04:18:46;100535.47;;;10.55;nan
59053;BME280;44843;44.728;10.396;2023-04-27T04:21:11;100528.81;;;10.81;nan
59053;BME280;44843;44.728;10.396;2023-04-27T04:23:37;100533.00;;;10.83;nan
59053;BME280;44843;44.728;10.396;2023-04-27T04:26:05;100539.28;;;10.95;nan
59053;BME280;44843;44.728;10.396;2023-04-27T04:28:30;100545.50;;;10.92;nan
59053;BME280;44843;44.728;10.396;2023-04-27T04:30:56;100542.78;;;11.10;nan
59053;BME280;44843;44.728;10.396;2023-04-27T04:33:21;100557.72;;;11.22;nan
59053;BME280;44843;44.728;10.396;2023-04-27T04:35:46;100550.31;;;11.30;nan
59053;BME280;44843;44.728;10.396;2023-04-27T04:38:12;100562.88;;;11.38;nan
59053;BME280;44843;44.728;10.396;2023-04-27T04:40:38;100552.28;;;11.55;nan
59053;BME280;44843;44.728;10.396;2023-04-27T04:43:04;100554.91;;;11.55;nan
59053;BME280;44843;44.728;10.396;2023-04-27T04:45:29;100557.34;;;11.73;nan
59053;BME280;44843;44.728;10.396;2023-04-27T04:47:55;100558.63;;;11.80;nan
59053;BME280;44843;44.728;10.396;2023-04-27T04:50:20;100565.56;;;11.95;nan
59053;BME280;44843;44.728;10.396;2023-04-27T04:52:47;100571.19;;;12.04;nan
59053;BME280;44843;44.728;10.396;2023-04-27T04:55:12;100572.09;;;12.17;nan
59053;BME280;44843;44.728;10.396;2023-04-27T04:57:38;100577.41;;;12.44;nan
59053;BME280;44843;44.728;10.396;2023-04-27T05:00:04;100575.13;;;12.52;nan
59053;BME280;44843;44.728;10.396;2023-04-27T05:02:37;100587.72;;;12.87;nan
59053;BME280;44843;44.728;10.396;2023-04-27T05:05:02;100585.53;;;12.94;nan
59053;BME280;44843;44.728;10.396;2023-04-27T05:07:28;100583.44;;;12.86;nan
59053;BME280;44843;44.728;10.396;2023-04-27T05:09:53;100585.63;;;13.19;nan
59053;BME280;44843;44.728;10.396;2023-04-27T05:12:19;100579.91;;;13.27;nan
59053;BME280;44843;44.728;10.396;2023-04-27T05:14:44;100587.00;;;13.25;nan
59053;BME280;44843;44.728;10.396;2023-04-27T05:17:10;100588.69;;;13.26;nan
59053;BME280;44843;44.728;10.396;2023-04-27T05:19:35;100584.06;;;13.17;nan
59053;BME280;44843;44.728;10.396;2023-04-27T05:22:00;100584.94;;;13.30;nan
59053;BME280;44843;44.728;10.396;2023-04-27T05:24:26;100582.13;;;13.33;nan
59053;BME280;44843;44.728;10.396;2023-04-27T05:26:51;100582.50;;;13.27;nan
59053;BME280;44843;44.728;10.396;2023-04-27T05:29:17;100581.94;;;13.36;nan
59053;BME280;44843;44.728;10.396;2023-04-27T05:31:42;100583.81;;;13.34;nan
59053;BME280;44843;44.728;10.396;2023-04-27T05:34:08;100582.13;;;13.46;nan
59053;BME280;44843;44.728;10.396;2023-04-27T05:36:34;100580.47;;;13.71;nan
59053;BME280;44843;44.728;10.396;2023-04-27T05:39:00;100587.28;;;13.99;nan
59053;BME280;44843;44.728;10.396;2023-04-27T05:41:26;100590.28;;;14.18;nan
59053;BME280;44843;44.728;10.396;2023-04-27T05:43:51;100592.16;;;14.29;nan
59053;BME280;44843;44.728;10.396;2023-04-27T05:46:17;100596.22;;;14.59;nan
59053;BME280;44843;44.728;10.396;2023-04-27T05:48:43;100588.84;;;14.64;nan
59053;BME280;44843;44.728;10.396;2023-04-27T05:51:08;100593.41;;;14.73;nan
59053;BME280;44843;44.728;10.396;2023-04-27T05:53:34;100597.38;;;14.55;nan
59053;BME280;44843;44.728;10.396;2023-04-27T05:55:59;100607.94;;;14.53;nan
59053;BME280;44843;44.728;10.396;2023-04-27T05:58:26;100615.31;;;14.48;nan
59053;BME280;44843;44.728;10.396;2023-04-27T06:00:52;100621.41;;;14.49;nan
59053;BME280;44843;44.728;10.396;2023-04-27T06:03:18;100619.63;;;14.36;nan
59053;BME280;44843;44.728;10.396;2023-04-27T06:05:43;100618.28;;;14.31;nan
59053;BME280;44843;44.728;10.396;2023-04-27T06:08:10;100624.97;;;14.48;nan
59053;BME280;44843;44.728;10.396;2023-04-27T06:10:35;100617.94;;;14.48;nan
59053;BME280;44843;44.728;10.396;2023-04-27T06:13:01;100619.03;;;14.33;nan
59053;BME280;44843;44.728;10.396;2023-04-27T06:15:26;100615.53;;;14.45;nan
59053;BME280;44843;44.728;10.396;2023-04-27T06:17:52;100612.69;;;14.61;nan
59053;BME280;44843;44.728;10.396;2023-04-27T06:20:17;100609.84;;;14.88;nan
59053;BME280;44843;44.728;10.396;2023-04-27T06:22:43;100603.66;;;14.89;nan
59053;BME280;44843;44.728;10.396;2023-04-27T06:25:08;100607.81;;;15.04;nan
59053;BME280;44843;44.728;10.396;2023-04-27T06:27:34;100620.72;;;15.19;nan
59053;BME280;44843;44.728;10.396;2023-04-27T06:29:59;100614.94;;;15.73;nan
59053;BME280;44843;44.728;10.396;2023-04-27T06:32:25;100613.06;;;16.09;nan
59053;BME280;44843;44.728;10.396;2023-04-27T06:34:50;100627.88;;;16.55;nan
59053;BME280;44843;44.728;10.396;2023-04-27T06:37:16;100626.38;;;17.28;nan
59053;BME280;44843;44.728;10.396;2023-04-27T06:39:44;100624.50;;;18.84;nan
59053;BME280;44843;44.728;10.396;2023-04-27T06:42:10;100623.88;;;22.39;nan
59053;BME280;44843;44.728;10.396;2023-04-27T06:44:36;100623.88;;;22.39;nan
59053;BME280;44843;44.728;10.396;2023-04-27T06:47:01;100632.72;;;27.78;nan
59053;BME280;44843;44.728;10.396;2023-04-27T06:49:27;100633.25;;;27.95;nan
59053;BME280;44843;44.728;10.396;2023-04-27T06:51:52;100634.63;;;28.67;nan
59053;BME280;44843;44.728;10.396;2023-04-27T06:54:17;100642.56;;;27.71;nan
59053;BME280;44843;44.728;10.396;2023-04-27T06:56:43;100640.38;;;28.64;nan
59053;BME280;44843;44.728;10.396;2023-04-27T06:59:09;100636.78;;;29.25;nan
59053;BME280;44843;44.728;10.396;2023-04-27T07:01:35;100641.09;;;29.06;nan
59053;BME280;44843;44.728;10.396;2023-04-27T07:04:02;100645.69;;;29.32;nan
59053;BME280;44843;44.728;10.396;2023-04-27T07:06:28;100653.13;;;29.57;nan
59053;BME280;44843;44.728;10.396;2023-04-27T07:08:53;100646.88;;;30.62;nan
59053;BME280;44843;44.728;10.396;2023-04-27T07:11:19;100649.91;;;28.73;nan
59053;BME280;44843;44.728;10.396;2023-04-27T07:13:44;100645.44;;;28.39;nan
59053;BME280;44843;44.728;10.396;2023-04-27T07:16:10;100645.47;;;29.74;nan
59053;BME280;44843;44.728;10.396;2023-04-27T07:18:35;100638.69;;;27.80;nan
59053;BME280;44843;44.728;10.396;2023-04-27T07:21:01;100644.00;;;23.00;nan
59053;BME280;44843;44.728;10.396;2023-04-27T07:23:26;100642.66;;;21.05;nan
59053;BME280;44843;44.728;10.396;2023-04-27T07:25:52;100653.03;;;19.29;nan
59053;BME280;44843;44.728;10.396;2023-04-27T07:28:18;100648.47;;;18.52;nan
59053;BME280;44843;44.728;10.396;2023-04-27T07:30:43;100638.91;;;17.99;nan
59053;BME280;44843;44.728;10.396;2023-04-27T07:33:10;100644.94;;;18.42;nan
59053;BME280;44843;44.728;10.396;2023-04-27T07:35:35;100646.81;;;17.99;nan
59053;BME280;44843;44.728;10.396;2023-04-27T07:38:02;100640.41;;;17.92;nan
59053;BME280;44843;44.728;10.396;2023-04-27T07:40:27;100645.28;;;17.55;nan
59053;BME280;44843;44.728;10.396;2023-04-27T07:42:53;100636.41;;;17.56;nan
59053;BME280;44843;44.728;10.396;2023-04-27T07:45:19;100638.88;;;17.89;nan
59053;BME280;44843;44.728;10.396;2023-04-27T07:47:44;100640.19;;;18.05;nan
59053;BME280;44843;44.728;10.396;2023-04-27T07:50:10;100640.19;;;18.05;nan
59053;BME280;44843;44.728;10.396;2023-04-27T07:52:38;100641.25;;;17.18;nan
59053;BME280;44843;44.728;10.396;2023-04-27T07:55:03;100646.28;;;17.21;nan
59053;BME280;44843;44.728;10.396;2023-04-27T07:57:28;100644.16;;;17.15;nan
59053;BME280;44843;44.728;10.396;2023-04-27T07:59:54;100648.88;;;17.00;nan
59053;BME280;44843;44.728;10.396;2023-04-27T08:02:20;100650.41;;;17.03;nan
59053;BME280;44843;44.728;10.396;2023-04-27T08:04:46;100658.94;;;16.95;nan
59053;BME280;44843;44.728;10.396;2023-04-27T08:07:11;100653.38;;;17.09;nan
59053;BME280;44843;44.728;10.396;2023-04-27T08:09:36;100653.91;;;16.92;nan
59053;BME280;44843;44.728;10.396;2023-04-27T08:12:02;100651.84;;;17.07;nan
59053;BME280;44843;44.728;10.396;2023-04-27T08:14:28;100656.34;;;16.84;nan
59053;BME280;44843;44.728;10.396;2023-04-27T08:16:53;100654.97;;;17.01;nan
59053;BME280;44843;44.728;10.396;2023-04-27T08:19:18;100658.13;;;16.83;nan
59053;BME280;44843;44.728;10.396;2023-04-27T08:21:43;100652.00;;;16.94;nan
59053;BME280;44843;44.728;10.396;2023-04-27T08:24:09;100662.91;;;16.78;nan
59053;BME280;44843;44.728;10.396;2023-04-27T08:26:34;100658.00;;;16.85;nan
59053;BME280;44843;44.728;10.396;2023-04-27T08:29:00;100664.38;;;16.82;nan
59053;BME280;44843;44.728;10.396;2023-04-27T08:31:26;100658.22;;;16.93;nan
59053;BME280;44843;44.728;10.396;2023-04-27T08:33:51;100663.09;;;17.09;nan
59053;BME280;44843;44.728;10.396;2023-04-27T08:36:20;100665.69;;;17.20;nan
59053;BME280;44843;44.728;10.396;2023-04-27T08:38:48;100675.59;;;17.28;nan
59053;BME280;44843;44.728;10.396;2023-04-27T08:41:17;100670.88;;;17.43;nan
59053;BME280;44843;44.728;10.396;2023-04-27T08:43:43;100669.41;;;17.18;nan
59053;BME280;44843;44.728;10.396;2023-04-27T08:46:09;100676.03;;;17.12;nan
59053;BME280;44843;44.728;10.396;2023-04-27T08:48:34;100666.13;;;16.93;nan
59053;BME280;44843;44.728;10.396;2023-04-27T08:50:59;100673.06;;;17.05;nan
59053;BME280;44843;44.728;10.396;2023-04-27T08:53:25;100673.75;;;17.07;nan
59053;BME280;44843;44.728;10.396;2023-04-27T08:55:50;100663.31;;;17.17;nan
59053;BME280;44843;44.728;10.396;2023-04-27T08:58:16;100664.34;;;17.26;nan
59053;BME280;44843;44.728;10.396;2023-04-27T09:00:43;100667.78;;;17.38;nan
59053;BME280;44843;44.728;10.396;2023-04-27T09:03:23;100667.25;;;17.12;nan
59053;BME280;44843;44.728;10.396;2023-04-27T09:05:48;100663.91;;;17.09;nan
59053;BME280;44843;44.728;10.396;2023-04-27T09:08:14;100667.69;;;16.96;nan
59053;BME280;44843;44.728;10.396;2023-04-27T09:10:44;100664.56;;;17.02;nan
59053;BME280;44843;44.728;10.396;2023-04-27T09:13:09;100668.28;;;16.99;nan
59053;BME280;44843;44.728;10.396;2023-04-27T09:15:45;100662.59;;;15.69;nan
59053;BME280;44843;44.728;10.396;2023-04-27T09:18:15;100664.50;;;16.58;nan
59053;BME280;44843;44.728;10.396;2023-04-27T09:20:43;100669.59;;;16.94;nan
59053;BME280;44843;44.728;10.396;2023-04-27T09:23:08;100659.06;;;16.94;nan
59053;BME280;44843;44.728;10.396;2023-04-27T09:25:33;100664.09;;;16.97;nan
59053;BME280;44843;44.728;10.396;2023-04-27T09:28:00;100669.03;;;17.22;nan
59053;BME280;44843;44.728;10.396;2023-04-27T09:30:27;100665.94;;;17.17;nan
59053;BME280;44843;44.728;10.396;2023-04-27T09:32:58;100667.38;;;17.21;nan
59053;BME280;44843;44.728;10.396;2023-04-27T09:35:27;100662.75;;;17.56;nan
59053;BME280;44843;44.728;10.396;2023-04-27T09:37:54;100654.63;;;17.59;nan
59053;BME280;44843;44.728;10.396;2023-04-27T09:40:21;100639.00;;;17.67;nan
59053;BME280;44843;44.728;10.396;2023-04-27T09:42:54;100658.53;;;17.64;nan
59053;BME280;44843;44.728;10.396;2023-04-27T09:45:22;100648.75;;;17.34;nan
59053;BME280;44843;44.728;10.396;2023-04-27T09:47:47;100647.59;;;17.48;nan
59053;BME280;44843;44.728;10.396;2023-04-27T09:50:14;100647.09;;;17.54;nan
59053;BME280;44843;44.728;10.396;2023-04-27T09:52:40;100646.31;;;17.42;nan
59053;BME280;44843;44.728;10.396;2023-04-27T09:55:08;100634.47;;;17.58;nan
59053;BME280;44843;44.728;10.396;2023-04-27T09:57:39;100648.00;;;17.43;nan
59053;BME280;44843;44.728;10.396;2023-04-27T10:00:19;100641.56;;;17.57;nan
59053;BME280;44843;44.728;10.396;2023-04-27T10:02:55;100637.69;;;17.61;nan
59053;BME280;44843;44.728;10.396;2023-04-27T10:05:41;100644.31;;;17.56;nan
59053;BME280;44843;44.728;10.396;2023-04-27T10:08:12;100648.06;;;17.74;nan
59053;BME280;44843;44.728;10.396;2023-04-27T10:10:46;100642.78;;;17.74;nan
59053;BME280;44843;44.728;10.396;2023-04-27T10:13:20;100633.72;;;17.67;nan
59053;BME280;44843;44.728;10.396;2023-04-27T10:15:46;100635.09;;;17.82;nan
59053;BME280;44843;44.728;10.396;2023-04-27T10:18:12;100638.69;;;18.12;nan
59053;BME280;44843;44.728;10.396;2023-04-27T10:20:37;100636.06;;;18.12;nan
59053;BME280;44843;44.728;10.396;2023-04-27T10:23:04;100630.88;;;18.31;nan
59053;BME280;44843;44.728;10.396;2023-04-27T10:25:40;100633.91;;;18.77;nan
59053;BME280;44843;44.728;10.396;2023-04-27T10:28:05;100635.69;;;18.57;nan
59053;BME280;44843;44.728;10.396;2023-04-27T10:30:36;100635.28;;;18.62;nan
59053;BME280;44843;44.728;10.396;2023-04-27T10:33:05;100626.28;;;18.74;nan
59053;BME280;44843;44.728;10.396;2023-04-27T10:35:36;100634.00;;;18.56;nan
59053;BME280;44843;44.728;10.396;2023-04-27T10:40:37;100626.47;;;18.42;nan
59053;BME280;44843;44.728;10.396;2023-04-27T10:45:35;100613.03;;;18.64;nan
59053;BME280;44843;44.728;10.396;2023-04-27T10:48:00;100617.06;;;18.59;nan
59053;BME280;44843;44.728;10.396;2023-04-27T10:50:26;100609.81;;;18.51;nan
59053;BME280;44843;44.728;10.396;2023-04-27T10:52:51;100605.75;;;18.47;nan
59053;BME280;44843;44.728;10.396;2023-04-27T10:55:21;100602.00;;;18.49;nan
59053;BME280;44843;44.728;10.396;2023-04-27T10:57:54;100604.06;;;18.36;nan
59053;BME280;44843;44.728;10.396;2023-04-27T11:00:31;100605.06;;;18.45;nan
59053;BME280;44843;44.728;10.396;2023-04-27T11:03:09;100607.28;;;18.49;nan
59053;BME280;44843;44.728;10.396;2023-04-27T11:05:36;100604.81;;;18.48;nan
59053;BME280;44843;44.728;10.396;2023-04-27T11:08:06;100602.13;;;18.38;nan
59053;BME280;44843;44.728;10.396;2023-04-27T11:10:32;100593.84;;;18.62;nan
59053;BME280;44843;44.728;10.396;2023-04-27T11:13:08;100606.41;;;18.80;nan
59053;BME280;44843;44.728;10.396;2023-04-27T11:15:51;100604.91;;;18.97;nan
59053;BME280;44843;44.728;10.396;2023-04-27T11:18:19;100609.34;;;19.06;nan
59053;BME280;44843;44.728;10.396;2023-04-27T11:20:47;100606.16;;;19.12;nan
59053;BME280;44843;44.728;10.396;2023-04-27T11:23:30;100604.06;;;19.06;nan
59053;BME280;44843;44.728;10.396;2023-04-27T11:26:14;100599.06;;;19.22;nan
59053;BME280;44843;44.728;10.396;2023-04-27T11:28:40;100600.72;;;19.04;nan
59053;BME280;44843;44.728;10.396;2023-04-27T11:31:06;100599.91;;;19.23;nan
59053;BME280;44843;44.728;10.396;2023-04-27T11:33:31;100600.16;;;19.20;nan
59053;BME280;44843;44.728;10.396;2023-04-27T11:35:57;100597.53;;;19.20;nan
59053;BME280;44843;44.728;10.396;2023-04-27T11:38:22;100603.78;;;19.19;nan
59053;BME280;44843;44.728;10.396;2023-04-27T11:41:02;100588.63;;;19.21;nan
59053;BME280;44843;44.728;10.396;2023-04-27T11:43:28;100599.34;;;19.19;nan
59053;BME280;44843;44.728;10.396;2023-04-27T11:45:53;100593.06;;;19.10;nan
59053;BME280;44843;44.728;10.396;2023-04-27T11:48:21;100598.34;;;19.10;nan
59053;BME280;44843;44.728;10.396;2023-04-27T11:50:47;100600.03;;;19.31;nan
59053;BME280;44843;44.728;10.396;2023-04-27T11:53:12;100594.34;;;19.16;nan
59053;BME280;44843;44.728;10.396;2023-04-27T11:55:38;100599.34;;;19.09;nan
59053;BME280;44843;44.728;10.396;2023-04-27T11:58:05;100596.25;;;19.24;nan
59053;BME280;44843;44.728;10.396;2023-04-27T12:00:31;100593.19;;;19.28;nan
59053;BME280;44843;44.728;10.396;2023-04-27T12:02:56;100595.00;;;19.28;nan
59053;BME280;44843;44.728;10.396;2023-04-27T12:05:21;100600.16;;;19.39;nan
59053;BME280;44843;44.728;10.396;2023-04-27T12:07:47;100598.47;;;19.58;nan
59053;BME280;44843;44.728;10.396;2023-04-27T12:10:12;100592.34;;;19.57;nan
59053;BME280;44843;44.728;10.396;2023-04-27T12:12:37;100598.88;;;19.72;nan
59053;BME280;44843;44.728;10.396;2023-04-27T12:15:03;100592.59;;;19.64;nan
59053;BME280;44843;44.728;10.396;2023-04-27T12:17:28;100598.44;;;19.77;nan
59053;BME280;44843;44.728;10.396;2023-04-27T12:19:53;100591.03;;;19.90;nan
59053;BME280;44843;44.728;10.396;2023-04-27T12:22:19;100596.50;;;19.79;nan
59053;BME280;44843;44.728;10.396;2023-04-27T12:24:44;100596.06;;;19.74;nan
59053;BME280;44843;44.728;10.396;2023-04-27T12:27:09;100594.28;;;19.74;nan
59053;BME280;44843;44.728;10.396;2023-04-27T12:29:34;100584.78;;;19.72;nan
59053;BME280;44843;44.728;10.396;2023-04-27T12:32:01;100584.25;;;19.59;nan
59053;BME280;44843;44.728;10.396;2023-04-27T12:34:26;100581.34;;;19.52;nan
59053;BME280;44843;44.728;10.396;2023-04-27T12:36:52;100579.00;;;19.39;nan
59053;BME280;44843;44.728;10.396;2023-04-27T12:39:19;100582.63;;;19.38;nan
59053;BME280;44843;44.728;10.396;2023-04-27T12:41:45;100589.88;;;19.36;nan
59053;BME280;44843;44.728;10.396;2023-04-27T12:44:11;100595.16;;;19.17;nan
59053;BME280;44843;44.728;10.396;2023-04-27T12:46:37;100592.66;;;19.25;nan
59053;BME280;44843;44.728;10.396;2023-04-27T12:49:02;100596.41;;;19.32;nan
59053;BME280;44843;44.728;10.396;2023-04-27T12:51:27;100589.59;;;19.29;nan
59053;BME280;44843;44.728;10.396;2023-04-27T12:53:53;100588.91;;;19.27;nan
59053;BME280;44843;44.728;10.396;2023-04-27T12:56:18;100574.28;;;19.43;nan
59053;BME280;44843;44.728;10.396;2023-04-27T12:58:43;100582.84;;;19.54;nan
59053;BME280;44843;44.728;10.396;2023-04-27T13:01:09;100585.94;;;19.69;nan